Toronto, Canada
Current Conditions -  °F | °C
As of 7:00 AM on Monday 20 Oct 2014 (Local Time) from CYYZ Reporting Station
Rain Showers Rain Showers  
Wind Chill: 45°   Ceiling: 7000
Heat Index: 45°   Visibility: 15mi
Dew Point: 39°   Wind: 3mph
Humidity: 81%   Direction: 120°ESE
Pressure: 29.89"   Gusts: NA
Location:  43.65°N, 79.39°W
Report Text: CYYZ 201100Z 12003KT 15SM -SHRA SCT045 OVC070 07/04 A2989 RMK SC3AC5 SLP127
Loading
Personal Weather Stations






























Interactive Weather Map
Tropical Storm Tracking
New forecast layout! Learn more

10-Day Weather Forecast

Advertisements
Track Severe Weather on mobile